Airfield :
LOGIN :

Register | Disclaimer

   EN    FR    IT 

 










Legend :    VFR   Marginal VFR   IFR   Intensive IFR   Very Intensive IFR
Visi :
Ceiling :
>= 8 km
>= 3000ft
5 to 8 km
1000 to 3000 ft
1500m to 5 km
500 to 1000 ft
800 to 1500m
200 to 500 ft
< 800m
< 200 ft
Symbols :   Thunderstorms  Fog  Heavy snow  Heavy precipitations  Wind > 20 kt
SIGMETs :     Misc.  Thunderstorms  Icing  Turbulence  Mountain Waves  Volcanic Ashes






- Airport Elevation : 659 ft
- IATA code : LGG


EBLG - Liège

CURRENT METAR :
  • 211320Z 02010KT 330V050 9999 FEW030 08/00 Q1023 NOSIG

EXPIRED METARs :
  • 211250Z 04011KT 350V060 9999 FEW028 08/01 Q1024 NOSIG
  • 211220Z 04015KT 9999 FEW026 SCT042 07/00 Q1024 NOSIG
  • 211150Z 03012KT 9999 FEW024 SCT036 06/01 Q1023 NOSIG
  • 211120Z 05015KT 9999 SCT023 BKN036 06/01 Q1023 NOSIG
  • 211050Z 05015KT 9999 SCT022 BKN033 05/00 Q1023 NOSIG
  • 211020Z 04012KT 9999 SCT021 06/01 Q1023 NOSIG
  • 210950Z 06012KT 020V090 9999 FEW018 06/01 Q1022 NOSIG
  • 210920Z 03011KT 9999 -SHRA SCT010 BKN016 05/03 Q1022 NOSIG
  • 210850Z 02010KT 9999 -SHRA SCT011 BKN018 04/02 Q1022 NOSIG

TAF TAF EBLG
Valid from the 21 at 12:00 until the 22 at 18:00 UTC


211118Z 2112/2218 03008KT 9999 FEW035
PROB30
TEMPO 2204/2207 4000 BR



MET'MAP, your aeronautical weather chart ! - Copyright ORBIFLY December 2007 - Disclaimer

ORBIFLY MET'MAP TEAM :

Programming & Development : Alexandra Zaïnal
Original concept : Baudouin d'Aumeries
Technical & hardware support : Manuel Goepfert
Assistance : Marc-Olivier Méhu




SOURCES & CREDITS :

   NOAA